MET783 - Boston to Houston

Airbus A319-131
309MT
3 hrs 15 mins
1388 nm
Scheduled - Daily

Bid/PiRep Status

Bid was submitted on Jan 08 2017.

PiRep # 74655: Approved by Sean Doyle on January 8th, 2017 22:52 UTC

Departure

Departing from
Boston (BOS)
Departure gate
Scheduled Departure
GMT 1445
Local 1045

Arrival

Arriving at
Houston (IAH)
Arrival gate
Scheduled Arrival
GMT 1800
Local 1300
METAR KIAH 270753Z 18008KT 8SM BKN015 OVC024 27/24 A2988 RMK AO2 SLP118 T02720239
TAF KIAH 270521Z 2706/2812 17009KT P6SM BKN015 OVC030 FM271500 18013G20KT P6SM SCT015 BKN025 FM271700 17014G21KT P6SM BKN035 FM280300 17010KT P6SM BKN015 OVC030

Route Map

Planning Resources

KBWI BINKS J75 GVE J42 SWAPP Q34 MEM J29 DARTR KIAH
KBWI BINKS J75 GVE J42 SWAPP Q34 MEM J29 VELCO DARTR KIAH
FLUKY PAUKI MOL J22 VUZ JAN AEX DAS8
KBWI PEPBI GRAAF VETTE NALIE KIAH
BINKS J75 GVE J42 MOL J22 VUZ J31 MEI J22 MCB J50 CIDOR J180 DAS
Route:
OFP Layout:
Units:
Detailed Navlog:
ETOPS Planning:
Plan Stepclimbs:
Runway Analysis:
Include NOTAMS:
FIR NOTAMS:
Flight Maps:

Return Flights

MET309
Airbus A321-232
1045 GMT
MET784
Airbus A319-131
1845 GMT

Popularity

Hub Current Bids PiReps this month Total PiReps
KMCI 0 0 2
KLAX 0 0 2
KBOS 0 0 1